Bude — V7XL2 — position and weather

sailwx.info

Track history (hours):
 
Tides and Currents Weather Stations Pressure Air Temp Water Temp Dewpoint Dewpoint Depression Visibility Wind Speed Wind Dir Waves Ship Positions

Bude

Last reported at 2014-Dec-19 12:25 UTC. Time now 2014-Dec-19 13:00 UTC.
Position N 49°26' E 000°15'.

Length 119 m; draft 6.2 m.

Type: Cargo ship. MMSI: 538004506.

Date/timePositionNaut miles runAvg speedWind from/ knotsBaromVisibWave heightAir tempDewpointWater temp
2014-Dec-19 12:25N 49°26' E 000°15'0 0.0
2014-Dec-19 11:28N 49°26' E 000°15'0 0.0
2014-Dec-19 10:28N 49°26' E 000°15'0 0.0
2014-Dec-19 09:28N 49°26' E 000°15'0 0.0
2014-Dec-19 08:28N 49°26' E 000°15'0 0.0
2014-Dec-19 07:22N 49°26' E 000°15'0 0.0
2014-Dec-19 06:31N 49°26' E 000°15'0 0.0
2014-Dec-19 05:16N 49°26' E 000°15'0 0.0
2014-Dec-19 04:28N 49°26' E 000°15'0 0.0
2014-Dec-19 03:22N 49°26' E 000°15'0 0.0
2014-Dec-19 02:22N 49°26' E 000°15'0 0.0
2014-Dec-19 01:25N 49°26' E 000°15'0 0.0
2014-Dec-19 00:28N 49°26' E 000°15'0 0.0
2014-Dec-18 23:22N 49°26' E 000°15'0 0.0
2014-Dec-18 22:31N 49°26' E 000°15'0 0.0
2014-Dec-18 21:16N 49°26' E 000°15'0 0.0
2014-Dec-18 20:10N 49°26' E 000°15'0 0.0
2014-Dec-18 19:28N 49°26' E 000°15'0 0.0
2014-Dec-18 18:28N 49°26' E 000°15'0 0.0
2014-Dec-18 17:22N 49°26' E 000°15'0 0.0
2014-Dec-18 16:28N 49°26' E 000°15'0 0.0
2014-Dec-18 15:28N 49°26' E 000°15'0 0.0
2014-Dec-18 14:28N 49°26' E 000°15'0 0.0
2014-Dec-18 13:28N 49°26' E 000°15'0 0.0
2014-Dec-18 12:22N 49°26' E 000°15'0 0.0
2014-Dec-18 11:22N 49°26' E 000°15'0 0.0
2014-Dec-18 10:13N 49°26' E 000°15'0 0.0
2014-Dec-18 09:33N 49°26' E 000°15'0 0.0
2014-Dec-18 08:32N 49°26' E 000°15'3 3.4
2014-Dec-18 07:33N 49°26' E 000°10'9 8.8
2014-Dec-18 06:33N 49°29' W 000°03'9 8.0
2014-Dec-18 05:27N 49°31' W 000°16'7 8.1
2014-Dec-18 04:32N 49°34' W 000°26'196 8.9
2014-Dec-17 06:33N 48°37' W 005°13'41 5.6
2014-Dec-16 23:14N 47°57' W 004°59'6 8.9
2014-Dec-16 22:32N 47°54' W 004°51'57 9.6
2014-Dec-16 16:33N 47°40' W 003°28'6 5.9
2014-Dec-16 15:33N 47°44' W 003°21'0 0.0
2014-Dec-16 14:31N 47°44' W 003°21'0 0.0
2014-Dec-16 13:28N 47°44' W 003°21'0 0.0
2014-Dec-16 12:31N 47°44' W 003°21'0 0.0
2014-Dec-16 11:31N 47°44' W 003°21'0 0.0
2014-Dec-16 10:31N 47°44' W 003°21'0 0.0
2014-Dec-16 09:31N 47°44' W 003°21'0 0.0
2014-Dec-16 08:31N 47°44' W 003°21'0 0.0
2014-Dec-16 07:31N 47°44' W 003°21'0 0.0
2014-Dec-16 06:28N 47°44' W 003°21'0 0.0
2014-Dec-16 05:22N 47°44' W 003°21'0 0.0
2014-Dec-16 04:19N 47°44' W 003°21'0 0.0
2014-Dec-16 03:31N 47°44' W 003°21'0 0.0
2014-Dec-16 02:30N 47°44' W 003°21'0 0.0
2014-Dec-16 01:07N 47°44' W 003°21'0 0.0
2014-Dec-16 00:07N 47°44' W 003°21'0 0.0
2014-Dec-15 23:33N 47°44' W 003°21'0 0.0
2014-Dec-15 22:33N 47°44' W 003°21'0 0.0
2014-Dec-15 21:33N 47°44' W 003°21'0 0.0
2014-Dec-15 20:30N 47°44' W 003°21'0 0.4
2014-Dec-15 19:34N 47°44' W 003°22'0 0.4
2014-Dec-15 18:33N 47°44' W 003°21'0 0.0
2014-Dec-15 17:33N 47°44' W 003°21'0 0.0
2014-Dec-15 16:33N 47°44' W 003°21'0 0.0
2014-Dec-15 15:33N 47°44' W 003°21'0 0.0
2014-Dec-15 14:33N 47°44' W 003°21'0 0.0
2014-Dec-15 13:33N 47°44' W 003°21'0 0.0
2014-Dec-15 12:33N 47°44' W 003°21'0 0.0
2014-Dec-15 11:33N 47°44' W 003°21'0 0.0
2014-Dec-15 10:33N 47°44' W 003°21'0 0.0
2014-Dec-15 09:33N 47°44' W 003°21'0 0.0
2014-Dec-15 08:33N 47°44' W 003°21'0 0.0
2014-Dec-15 07:33N 47°44' W 003°21'0 0.0
2014-Dec-15 06:33N 47°44' W 003°21'0 0.0
2014-Dec-15 05:33N 47°44' W 003°21'0 0.0
2014-Dec-15 04:33N 47°44' W 003°21'0 0.0
2014-Dec-15 03:33N 47°44' W 003°21'0 0.0
2014-Dec-15 02:33N 47°44' W 003°21'0 0.0
2014-Dec-15 01:33N 47°44' W 003°21'0 0.0
2014-Dec-15 00:24N 47°44' W 003°21'0 0.0
2014-Dec-14 23:30N 47°44' W 003°21'0 0.0
2014-Dec-14 22:33N 47°44' W 003°21'0 0.0
2014-Dec-14 21:33N 47°44' W 003°21'0 0.0
2014-Dec-14 20:33N 47°44' W 003°21'0 0.0
2014-Dec-14 19:33N 47°44' W 003°21'0 0.0
2014-Dec-14 18:21N 47°44' W 003°21'0 0.0
2014-Dec-14 17:33N 47°44' W 003°21'0 0.0
2014-Dec-14 16:33N 47°44' W 003°21'0 0.0
2014-Dec-14 15:33N 47°44' W 003°21'0 0.0
2014-Dec-14 14:33N 47°44' W 003°21'0 0.0
2014-Dec-14 13:33N 47°44' W 003°21'0 0.0
2014-Dec-14 12:33N 47°44' W 003°21'0 0.0
2014-Dec-14 11:33N 47°44' W 003°21'0 0.0
2014-Dec-14 10:33N 47°44' W 003°21'0 0.0
2014-Dec-14 09:33N 47°44' W 003°21'0 0.0
2014-Dec-14 08:33N 47°44' W 003°21'0 0.0
2014-Dec-14 07:33N 47°44' W 003°21'0 0.0
2014-Dec-14 06:33N 47°44' W 003°21'0 0.0
2014-Dec-14 05:33N 47°44' W 003°21'0 0.0
2014-Dec-14 04:32N 47°44' W 003°21'0 0.0
2014-Dec-14 03:32N 47°44' W 003°21'0 0.0
2014-Dec-14 02:32N 47°44' W 003°21'0 0.0
2014-Dec-14 01:32N 47°44' W 003°21'0 0.0
2014-Dec-14 00:32N 47°44' W 003°21'0 0.0
2014-Dec-13 23:32N 47°44' W 003°21'0 0.0
2014-Dec-13 22:26N 47°44' W 003°21'0 0.0
2014-Dec-13 21:32N 47°44' W 003°21'0 0.0
2014-Dec-13 20:32N 47°44' W 003°21'0 0.0
2014-Dec-13 19:32N 47°44' W 003°21'0 0.0
2014-Dec-13 18:32N 47°44' W 003°21'0 0.0
2014-Dec-13 17:32N 47°44' W 003°21'0 0.0
2014-Dec-13 16:32N 47°44' W 003°21'0 0.0
2014-Dec-13 15:32N 47°44' W 003°21'0 0.0
2014-Dec-13 14:32N 47°44' W 003°21'0 0.0
2014-Dec-13 13:32N 47°44' W 003°21'0 0.0
2014-Dec-13 12:32N 47°44' W 003°21'0 0.0
2014-Dec-13 11:32N 47°44' W 003°21'0 0.1
2014-Dec-13 10:34N 47°44' W 003°21'6 5.3
2014-Dec-13 09:28N 47°40' W 003°28'  
Track history (hours):
 
Tides and Currents Weather Stations Pressure Air Temp Water Temp Dewpoint Dewpoint Depression Visibility Wind Speed Wind Dir Waves Ship Positions

Bude

Last reported at 2014-Dec-19 12:25 UTC. Time now 2014-Dec-19 13:00 UTC.
Position N 49°26' E 000°15'.

Length 119 m; draft 6.2 m.

Type: Cargo ship. MMSI: 538004506.

Date/timePositionNaut miles runAvg speedWind from/ knotsBaromVisibWave heightAir tempDewpointWater temp
2014-Dec-19 12:25N 49°26' E 000°15'0 0.0
2014-Dec-19 11:28N 49°26' E 000°15'0 0.0
2014-Dec-19 10:28N 49°26' E 000°15'0 0.0
2014-Dec-19 09:28N 49°26' E 000°15'0 0.0
2014-Dec-19 08:28N 49°26' E 000°15'0 0.0
2014-Dec-19 07:22N 49°26' E 000°15'0 0.0
2014-Dec-19 06:31N 49°26' E 000°15'0 0.0
2014-Dec-19 05:16N 49°26' E 000°15'0 0.0
2014-Dec-19 04:28N 49°26' E 000°15'0 0.0
2014-Dec-19 03:22N 49°26' E 000°15'0 0.0
2014-Dec-19 02:22N 49°26' E 000°15'0 0.0
2014-Dec-19 01:25N 49°26' E 000°15'0 0.0
2014-Dec-19 00:28N 49°26' E 000°15'0 0.0
2014-Dec-18 23:22N 49°26' E 000°15'0 0.0
2014-Dec-18 22:31N 49°26' E 000°15'0 0.0
2014-Dec-18 21:16N 49°26' E 000°15'0 0.0
2014-Dec-18 20:10N 49°26' E 000°15'0 0.0
2014-Dec-18 19:28N 49°26' E 000°15'0 0.0
2014-Dec-18 18:28N 49°26' E 000°15'0 0.0
2014-Dec-18 17:22N 49°26' E 000°15'0 0.0
2014-Dec-18 16:28N 49°26' E 000°15'0 0.0
2014-Dec-18 15:28N 49°26' E 000°15'0 0.0
2014-Dec-18 14:28N 49°26' E 000°15'0 0.0
2014-Dec-18 13:28N 49°26' E 000°15'0 0.0
2014-Dec-18 12:22N 49°26' E 000°15'0 0.0
2014-Dec-18 11:22N 49°26' E 000°15'0 0.0
2014-Dec-18 10:13N 49°26' E 000°15'0 0.0
2014-Dec-18 09:33N 49°26' E 000°15'0 0.0
2014-Dec-18 08:32N 49°26' E 000°15'3 3.4
2014-Dec-18 07:33N 49°26' E 000°10'9 8.8
2014-Dec-18 06:33N 49°29' W 000°03'9 8.0
2014-Dec-18 05:27N 49°31' W 000°16'7 8.1
2014-Dec-18 04:32N 49°34' W 000°26'196 8.9
2014-Dec-17 06:33N 48°37' W 005°13'41 5.6
2014-Dec-16 23:14N 47°57' W 004°59'6 8.9
2014-Dec-16 22:32N 47°54' W 004°51'57 9.6
2014-Dec-16 16:33N 47°40' W 003°28'6 5.9
2014-Dec-16 15:33N 47°44' W 003°21'0 0.0
2014-Dec-16 14:31N 47°44' W 003°21'0 0.0
2014-Dec-16 13:28N 47°44' W 003°21'0 0.0
2014-Dec-16 12:31N 47°44' W 003°21'0 0.0
2014-Dec-16 11:31N 47°44' W 003°21'0 0.0
2014-Dec-16 10:31N 47°44' W 003°21'0 0.0
2014-Dec-16 09:31N 47°44' W 003°21'0 0.0
2014-Dec-16 08:31N 47°44' W 003°21'0 0.0
2014-Dec-16 07:31N 47°44' W 003°21'0 0.0
2014-Dec-16 06:28N 47°44' W 003°21'0 0.0
2014-Dec-16 05:22N 47°44' W 003°21'0 0.0
2014-Dec-16 04:19N 47°44' W 003°21'0 0.0
2014-Dec-16 03:31N 47°44' W 003°21'0 0.0
2014-Dec-16 02:30N 47°44' W 003°21'0 0.0
2014-Dec-16 01:07N 47°44' W 003°21'0 0.0
2014-Dec-16 00:07N 47°44' W 003°21'0 0.0
2014-Dec-15 23:33N 47°44' W 003°21'0 0.0
2014-Dec-15 22:33N 47°44' W 003°21'0 0.0
2014-Dec-15 21:33N 47°44' W 003°21'0 0.0
2014-Dec-15 20:30N 47°44' W 003°21'0 0.4
2014-Dec-15 19:34N 47°44' W 003°22'0 0.4
2014-Dec-15 18:33N 47°44' W 003°21'0 0.0
2014-Dec-15 17:33N 47°44' W 003°21'0 0.0
2014-Dec-15 16:33N 47°44' W 003°21'0 0.0
2014-Dec-15 15:33N 47°44' W 003°21'0 0.0
2014-Dec-15 14:33N 47°44' W 003°21'0 0.0
2014-Dec-15 13:33N 47°44' W 003°21'0 0.0
2014-Dec-15 12:33N 47°44' W 003°21'0 0.0
2014-Dec-15 11:33N 47°44' W 003°21'0 0.0
2014-Dec-15 10:33N 47°44' W 003°21'0 0.0
2014-Dec-15 09:33N 47°44' W 003°21'0 0.0
2014-Dec-15 08:33N 47°44' W 003°21'0 0.0
2014-Dec-15 07:33N 47°44' W 003°21'0 0.0
2014-Dec-15 06:33N 47°44' W 003°21'0 0.0
2014-Dec-15 05:33N 47°44' W 003°21'0 0.0
2014-Dec-15 04:33N 47°44' W 003°21'0 0.0
2014-Dec-15 03:33N 47°44' W 003°21'0 0.0
2014-Dec-15 02:33N 47°44' W 003°21'0 0.0
2014-Dec-15 01:33N 47°44' W 003°21'0 0.0
2014-Dec-15 00:24N 47°44' W 003°21'0 0.0
2014-Dec-14 23:30N 47°44' W 003°21'0 0.0
2014-Dec-14 22:33N 47°44' W 003°21'0 0.0
2014-Dec-14 21:33N 47°44' W 003°21'0 0.0
2014-Dec-14 20:33N 47°44' W 003°21'0 0.0
2014-Dec-14 19:33N 47°44' W 003°21'0 0.0
2014-Dec-14 18:21N 47°44' W 003°21'0 0.0
2014-Dec-14 17:33N 47°44' W 003°21'0 0.0
2014-Dec-14 16:33N 47°44' W 003°21'0 0.0
2014-Dec-14 15:33N 47°44' W 003°21'0 0.0
2014-Dec-14 14:33N 47°44' W 003°21'0 0.0
2014-Dec-14 13:33N 47°44' W 003°21'0 0.0
2014-Dec-14 12:33N 47°44' W 003°21'0 0.0
2014-Dec-14 11:33N 47°44' W 003°21'0 0.0
2014-Dec-14 10:33N 47°44' W 003°21'0 0.0
2014-Dec-14 09:33N 47°44' W 003°21'0 0.0
2014-Dec-14 08:33N 47°44' W 003°21'0 0.0
2014-Dec-14 07:33N 47°44' W 003°21'0 0.0
2014-Dec-14 06:33N 47°44' W 003°21'0 0.0
2014-Dec-14 05:33N 47°44' W 003°21'0 0.0
2014-Dec-14 04:32N 47°44' W 003°21'0 0.0
2014-Dec-14 03:32N 47°44' W 003°21'0 0.0
2014-Dec-14 02:32N 47°44' W 003°21'0 0.0
2014-Dec-14 01:32N 47°44' W 003°21'0 0.0
2014-Dec-14 00:32N 47°44' W 003°21'0 0.0
2014-Dec-13 23:32N 47°44' W 003°21'0 0.0
2014-Dec-13 22:26N 47°44' W 003°21'0 0.0
2014-Dec-13 21:32N 47°44' W 003°21'0 0.0
2014-Dec-13 20:32N 47°44' W 003°21'0 0.0
2014-Dec-13 19:32N 47°44' W 003°21'0 0.0
2014-Dec-13 18:32N 47°44' W 003°21'0 0.0
2014-Dec-13 17:32N 47°44' W 003°21'0 0.0
2014-Dec-13 16:32N 47°44' W 003°21'0 0.0
2014-Dec-13 15:32N 47°44' W 003°21'0 0.0
2014-Dec-13 14:32N 47°44' W 003°21'0 0.0
2014-Dec-13 13:32N 47°44' W 003°21'0 0.0
2014-Dec-13 12:32N 47°44' W 003°21'0 0.0
2014-Dec-13 11:32N 47°44' W 003°21'0 0.1
2014-Dec-13 10:34N 47°44' W 003°21'6 5.3
2014-Dec-13 09:28N 47°40' W 003°28'  

Dump ship's entire track history